NCAR-RAP Real-Time Weather Data

Output produced by METARs form (08 May 2021  01:01 UTC)
found at http://weather.rap.ucar.edu/surface/
 
KGWO 080053Z AUTO 34003KT 10SM CLR 17/11 A3008 RMK AO2 SLP186 T01670106
KGWO 072353Z AUTO 00000KT 10SM FEW120 21/08 A3009 RMK AO2 SLP187 T02110078 10239 20211 58019
KGWO 072253Z AUTO VRB04KT 10SM CLR 22/06 A3012 RMK AO2 SLP196 T02220056
KGWO 072153Z AUTO VRB03KT 10SM CLR 23/06 A3012 RMK AO2 SLP199 T02330061
KGWO 072053Z AUTO 00000KT 10SM CLR 23/06 A3015 RMK AO2 SLP206 T02330061 57022
KGWO 071953Z AUTO 01005KT 10SM CLR 23/06 A3017 RMK AO2 SLP214 T02330056
KGWO 071853Z AUTO VRB05KT 10SM CLR 22/04 A3019 RMK AO2 SLP221 T02220044
KGWO 071753Z AUTO VRB04KT 10SM CLR 22/06 A3021 RMK AO2 SLP229 T02170056 10217 20128 58010
KGWO 071653Z AUTO 00000KT 10SM CLR 21/06 A3024 RMK AO2 SLP237 T02060056
KGWO 071553Z AUTO 03006KT 10SM CLR 20/06 A3024 RMK AO2 SLP238 T02000056
KGWO 071453Z AUTO 03009KT 10SM CLR 19/06 A3024 RMK AO2 SLP238 T01890056 51014
KGWO 071353Z AUTO 06008KT 10SM CLR 17/08 A3023 RMK AO2 SLP237 T01720078
KGWO 071253Z AUTO 05004KT 10SM CLR 15/10 A3023 RMK AO2 SLP233 T01500100
KGWO 071153Z AUTO 02004KT 10SM CLR 13/10 A3020 RMK AO2 SLP224 T01280100 10161 20117 53023
KGWO 071053Z AUTO 01005KT 10SM CLR 12/10 A3017 RMK AO2 SLP215 T01220100